Soaring Guidance
Issued by NWS Reno, NV

Home | Current Version | Previous Version | Text Only | Print | Product List | Glossary On
Versions: 1 2 3 4 5 6 7 8 9 10 11 12 13 14 15 16 17 18
000
UXUS97 KREV 031446
SRGREV

SOARING FORECAST
NATIONAL WEATHER SERVICE - RENO NV
700 AM PST SAT DEC 3 2016

THIS SOARING FORECAST IS FOR THE EASTERN SIERRA AND WESTERN NEVADA
WITH SPECIFIC INDICES FOR THE GREATER RENO AREA.

THIS FORECAST IS PREPARED DAILY BY 700 AM AND IS NOT UPDATED.

FOR CURRENT FLIGHT CONDITIONS...FORECASTS...AND ADVISORIES...ACCESS
YOUR LOCAL BRIEFING OUTLET OR FLIGHT SERVICE STATION.

*******************************************************************
FORECASTED LOCAL INDICES FOR RENO:        TODAY     YESTERDAY
FORECASTED MAX TEMP AT RENO (DEG F).....     47          40
FORECASTED TRIGGER TEMPERATURE (DEG F)..     56          31
   EXCEEDED YESTERDAY BY 955 AM PST
FORECASTED MAXIMUM ALTITUDE (FT MSL)....   6500       11000
FORECASTED SOARING INDEX (FPM)..........    195         420
FORECASTED K-INDEX.........VALID 18Z....      1         -16
FORECASTED K-INDEX.........VALID 00Z....      6         -16
FORECASTED LIFTED INDEX....VALID 18Z....      7          14
FORECASTED LIFTED INDEX....VALID 00Z....      6          11

AFTERNOON WINDS ALOFT FORECAST
MSL (FT) WIND/TEMP
9000  3521/+04
10000 3323/+02
12000 3328/-02
14000 3331/-06
16000 3335/-10
18000 3346/-15
24000 3258/-28
30000 3271/-41
34000 3198/-50
39000 8100/-58

SLIDE MOUNTAIN DATA:
     DATE       TIME     TEMP  DEWPT   RH         WIND (MPH)
                        (F)   (F)           | DIR  SPEED GUST
2016-12-03    05:00      34     8     21    | 342   17   28
2016-12-03    04:50      34    10     23    | 346   18   31
2016-12-03    04:30      34    10     23    | 345   18   29
2016-12-03    04:20      33    12     27    | 348   18   28

RENO TAF FORECAST:
KRNO 031120Z 0312/0412 VRB04KT P6SM FEW200
     FM032000 10005KT P6SM FEW200
     FM040200 VRB03KT P6SM FEW080 SCT200

CARSON CITY TAF FORECAST:
KCXP 031120Z 0312/0412 VRB03KT P6SM FEW200
     FM032000 10011KT P6SM FEW200
     FM040100 VRB03KT P6SM FEW080 SCT200

OUTLOOK FOR THE RENO-CARSON CITY-MINDEN AREA:
.SUNDAY...PARTLY CLOUDY. HIGHS 51 TO 56. LIGHT WINDS.

SUNRISE AND SUNSET
DECEMBER  3 2016......SUNRISE   703 AM PST   SUNSET   435 PM PST
DECEMBER  4 2016......SUNRISE   704 AM PST   SUNSET   435 PM PST


USA.gov is the U.S. government's official web portal to all federal, state and local government web resources and services.